TLSO2: Arkansas River, Tulsa, OK

                                SHEF ID:       TLSO2     Arkansas River at Tulsa, OK
STATION TYPE: Stream Gauge
Regulating: Stage = 15.00, Flow = 96489

PRECIP STAGE STAGE(2) RIV-FLOW WTR-TEMP DIS-OXY BAT-LOAD
in ft ft cfs F mg/l volt
Ccp-Rev Ccp-Rev Ccp-Rev Ccp-Rev Ccp-Rev Ccp-Rev Ccp-Rev
(America/Chicago)
03/26 00:00 0.00 4.66 ---- 5477 67.48 10.91 ----
03/26 01:00 0.00 4.67 ---- 5529 67.06 10.18 ----
03/26 02:00 0.00 4.63 ---- 5321 64.02 9.07 ----
03/26 03:00 0.00 4.62 ---- 5270 62.89 8.52 ----
03/26 04:00 0.00 4.56 ---- 4969 61.66 8.24 ----
03/26 05:00 0.00 4.52 ---- 4774 60.84 7.98 ----
03/26 06:00 0.00 4.51 ---- 4726 60.82 7.89 ----
03/26 07:00 0.00 4.50 ---- 4678 59.92 7.81 ----
03/26 08:00 0.00 4.52 ---- 4774 59.74 7.79 ----
03/26 09:00 0.00 4.49 ---- 4631 59.94 7.88 ----
03/26 10:00 0.00 4.41 ---- 4260 60.76 8.12 ----
03/26 11:00 0.00 4.34 ---- 3951 61.12 9.09 ----
03/26 12:00 0.00 4.25 ---- 3572 62.42 9.36 ----
03/26 13:00 0.00 4.18 ---- 3293 63.32 10.74 ----
03/26 14:00 0.00 4.08 ---- 2916 64.76 10.27 ----
03/26 15:00 0.00 4.09 ---- 2953 65.88 11.34 ----
03/26 16:00 0.00 4.14 ---- 3139 67.08 11.00 ----
03/26 17:00 0.00 4.08 ---- 2916 67.59 11.16 ----
03/26 18:00 0.00 4.09 ---- 2953 68.29 11.14 ----
03/26 19:00 0.00 4.05 ---- 2809 68.54 11.01 ----
03/26 20:00 0.00 4.21 ---- 3411 69.12 11.92 ----
03/26 21:00 0.00 4.72 ---- 5795 68.77 11.05 ----
03/26 22:00 0.00 4.61 ---- 5219 69.26 10.71 ----
03/26 23:00 0.00 4.59 ---- 5118 70.77 9.65 ----
Data processed at Fri 27Mar2026 04:48 GMT

NOTICE: If you are parsing this page

Please convert to using our Data API. Starting early 2026 we will be migrating to: https://water.usace.army.mil with modern pages rendered in JavaScript. When this migration completes you will no longer be able to scrape this page! CWMSDataAPI (CDA)

Timeseries IDs (TSIDs)

TSIDs used from left to right in the data table
TULA.Precip-Inc.Total.1Hour.1Hour.Ccp-Rev
TULA.Stage.Inst.1Hour.0.Ccp-Rev
TULA.Stage-Alt.Inst.1Hour.0.Ccp-Rev
TULA.Flow.Inst.1Hour.0.Ccp-Rev
TULA.Temp-Water.Inst.1Hour.0.Ccp-Rev
TULA.Conc-DO.Inst.1Hour.0.Ccp-Rev
TULA.Volt-Battery Load.Inst.1Hour.0.Ccp-Rev

                            

All information presented herein is the property of the government of the United States of America and may be revised or deleted at any time without prior notice. Dissemination of this information without the expressed written consent of the Public Affairs Office, Tulsa District U.S. Army Corps of Engineers is strictly prohibited. These data are gathered electronically and, as presented, have NOT undergone any form of quality control. These data are NOT guaranteed to be valid or correct.